createdAt,value
2023-11-24T00:00:27.518Z,96879.63
2023-11-24T00:03:21.287Z,96877.41
2023-11-24T00:05:54.985Z,96864.80
2023-11-24T00:08:28.689Z,96861.77
2023-11-24T00:11:04.663Z,96871.81
2023-11-24T00:13:38.073Z,96862.71
2023-11-24T00:16:12.815Z,96858.77
2023-11-24T00:18:46.382Z,96862.80
2023-11-24T00:21:19.820Z,96860.81
2023-11-24T00:23:53.585Z,96861.45
2023-11-24T00:26:28.084Z,96856.09
2023-11-24T00:29:02.747Z,96861.30
2023-11-24T00:31:38.045Z,96866.83
2023-11-24T00:34:11.679Z,96862.89
2023-11-24T00:36:47.584Z,96865.02
2023-11-24T00:39:21.130Z,96867.05
2023-11-24T00:41:54.512Z,96874.48
2023-11-24T00:44:27.940Z,96874.48
2023-11-24T00:47:01.507Z,96877.34
2023-11-24T00:49:35.901Z,96883.34
2023-11-24T00:52:09.827Z,96879.39
2023-11-24T00:54:44.001Z,96879.07
2023-11-24T00:57:17.611Z,96880.58
2023-11-24T00:59:52.064Z,96882.22
2023-11-24T01:02:25.706Z,96878.52
2023-11-24T01:04:59.179Z,96884.28
2023-11-24T01:07:33.416Z,96909.32
2023-11-24T01:10:09.070Z,96949.84
2023-11-24T01:12:42.704Z,96970.21
2023-11-24T01:15:16.882Z,96985.31
2023-11-24T01:17:50.385Z,97026.30
2023-11-24T01:20:26.286Z,97023.15
2023-11-24T01:22:59.790Z,97019.77
2023-11-24T01:25:33.160Z,97000.30
2023-11-24T01:28:07.314Z,96988.06
2023-11-24T01:30:40.888Z,96982.86
2023-11-24T01:33:14.535Z,96988.48
2023-11-24T01:35:50.296Z,96982.14
2023-11-24T01:38:24.676Z,96980.72
2023-11-24T01:40:58.586Z,96981.52
2023-11-24T01:43:31.981Z,96978.34
2023-11-24T01:46:06.615Z,96980.71
2023-11-24T01:48:40.118Z,96980.33
2023-11-24T01:51:13.582Z,96982.06
2023-11-24T01:53:47.021Z,96982.23
2023-11-24T01:56:21.308Z,96972.84
2023-11-24T01:58:55.264Z,96972.35
2023-11-24T02:01:31.464Z,96969.05
2023-11-24T02:04:05.377Z,96962.47
2023-11-24T02:06:38.873Z,96950.93
2023-11-24T02:09:12.407Z,96942.17
2023-11-24T02:11:46.000Z,96944.15
2023-11-24T02:14:19.414Z,96939.57
2023-11-24T02:16:52.878Z,96920.45
2023-11-24T02:19:26.388Z,96908.23
2023-11-24T02:21:59.876Z,96906.86
2023-11-24T02:24:33.353Z,96894.32
2023-11-24T02:27:08.382Z,96884.77
2023-11-24T02:29:42.229Z,96874.81
2023-11-24T02:32:15.987Z,96877.09
2023-11-24T02:34:49.884Z,96874.10
2023-11-24T02:37:23.305Z,96882.88
2023-11-24T02:39:57.002Z,96892.98
2023-11-24T02:42:31.407Z,96898.20
2023-11-24T02:45:05.129Z,96908.15
2023-11-24T02:47:38.857Z,96918.49
2023-11-24T02:50:14.014Z,96919.27
2023-11-24T02:52:47.412Z,96931.67
2023-11-24T02:55:21.214Z,96915.58
2023-11-24T02:57:54.639Z,96910.36
2023-11-24T03:00:28.294Z,96901.77
2023-11-24T03:03:03.288Z,96882.71
2023-11-24T03:05:36.739Z,96888.41
2023-11-24T03:08:10.637Z,96889.44
2023-11-24T03:10:45.025Z,96893.38
2023-11-24T03:13:19.204Z,96894.98
2023-11-24T03:15:52.602Z,96893.94
2023-11-24T03:18:26.125Z,96897.27
2023-11-24T03:20:59.577Z,96885.73
2023-11-24T03:23:33.037Z,96874.05
2023-11-24T03:26:06.567Z,96869.15
2023-11-24T03:28:40.240Z,96865.05
2023-11-24T03:31:13.709Z,96854.63
2023-11-24T03:33:47.409Z,96842.16
2023-11-24T03:36:21.258Z,96839.39
2023-11-24T03:38:54.842Z,96834.90
2023-11-24T03:41:28.302Z,96829.61
2023-11-24T03:44:01.884Z,96831.67
2023-11-24T03:46:35.346Z,96834.44
2023-11-24T03:49:09.102Z,96828.27
2023-11-24T03:51:43.059Z,96821.57
2023-11-24T03:54:17.130Z,96825.29
2023-11-24T03:56:50.645Z,96817.94
2023-11-24T03:59:24.374Z,96826.46
2023-11-24T04:01:57.795Z,96827.25
2023-11-24T04:04:31.422Z,96828.77
2023-11-24T04:07:05.070Z,96840.77
2023-11-24T04:09:38.662Z,96833.42
2023-11-24T04:12:12.555Z,96814.80
2023-11-24T04:14:46.035Z,96814.80
2023-11-24T04:17:19.586Z,96822.15
2023-11-24T04:19:52.957Z,96812.91
2023-11-24T04:22:26.671Z,96815.83
2023-11-24T04:25:00.052Z,96809.52
2023-11-24T04:27:33.952Z,96812.90
2023-11-24T04:30:09.136Z,96807.69
2023-11-24T04:32:42.665Z,96795.38
2023-11-24T04:35:16.980Z,96797.45
2023-11-24T04:37:52.084Z,96787.09
2023-11-24T04:40:25.752Z,96781.48
2023-11-24T04:42:59.267Z,96781.16
2023-11-24T04:45:33.255Z,96781.89
2023-11-24T04:48:08.055Z,96787.41
2023-11-24T04:50:41.539Z,96783.31
2023-11-24T04:53:15.315Z,96792.40
2023-11-24T04:56:14.028Z,96788.14
2023-11-24T04:59:29.456Z,96788.21
2023-11-24T05:02:37.209Z,96794.54
2023-11-24T05:05:43.753Z,96809.91
2023-11-24T05:09:20.830Z,96806.86
2023-11-24T05:11:59.414Z,96806.39
2023-11-24T05:14:33.761Z,96820.84
2023-11-24T05:17:47.912Z,96821.08
2023-11-24T05:20:59.948Z,96850.03
2023-11-24T05:26:51.020Z,96836.63
2023-11-24T05:29:24.671Z,96841.83
2023-11-24T05:31:58.223Z,96838.59
2023-11-24T05:34:31.652Z,96833.94
2023-11-24T05:37:08.921Z,96838.27
2023-11-24T05:39:42.553Z,96840.96
2023-11-24T05:42:16.546Z,96837.96
2023-11-24T05:44:50.247Z,96846.03
2023-11-24T05:47:23.723Z,96851.64
2023-11-24T05:49:57.573Z,96850.92
2023-11-24T05:52:30.961Z,96859.83
2023-11-24T05:55:04.738Z,96865.90
2023-11-24T05:57:38.597Z,96858.80
2023-11-24T06:00:18.172Z,96855.17
2023-11-24T06:02:51.820Z,96853.91
2023-11-24T06:05:25.327Z,96858.26
2023-11-24T06:07:59.498Z,96863.85
2023-11-24T06:10:33.096Z,96871.84
2023-11-24T06:13:06.508Z,96876.73
2023-11-24T06:15:39.993Z,96880.44
2023-11-24T06:18:14.099Z,96884.54
2023-11-24T06:20:47.638Z,96881.93
2023-11-24T06:23:22.345Z,96880.91
2023-11-24T06:25:55.930Z,96886.98
2023-11-24T06:28:29.670Z,96893.70
2023-11-24T06:31:04.281Z,96899.84
2023-11-24T06:33:37.910Z,96902.77
2023-11-24T06:36:12.725Z,96906.63
2023-11-24T06:38:48.812Z,96905.84
2023-11-24T06:41:22.302Z,96915.77
2023-11-24T06:43:55.775Z,96923.20
2023-11-24T06:46:29.170Z,96930.14
2023-11-24T06:49:02.816Z,96934.64
2023-11-24T06:51:36.397Z,96938.11
2023-11-24T06:54:10.320Z,96940.79
2023-11-24T06:56:43.782Z,96945.45
2023-11-24T06:59:18.091Z,96943.48
2023-11-24T07:01:52.011Z,96939.75
2023-11-24T07:04:25.621Z,96943.31
2023-11-24T07:06:59.527Z,96940.16
2023-11-24T07:09:33.089Z,96930.52
2023-11-24T07:12:07.187Z,96925.09
2023-11-24T07:14:40.584Z,96929.27
2023-11-24T07:17:14.256Z,96930.77
2023-11-24T07:19:47.646Z,96932.36
2023-11-24T07:22:22.423Z,96928.09
2023-11-24T07:24:56.585Z,96921.94
2023-11-24T07:27:32.408Z,96914.52
2023-11-24T07:30:06.848Z,96916.02
2023-11-24T07:32:40.686Z,96909.87
2023-11-24T07:35:15.322Z,96913.02
2023-11-24T07:37:49.313Z,96909.30
2023-11-24T07:40:23.064Z,96900.88
2023-11-24T07:42:56.645Z,96892.27
2023-11-24T07:45:30.313Z,96893.93
2023-11-24T07:48:03.871Z,96897.72
2023-11-24T07:50:38.310Z,96905.36
2023-11-24T07:53:14.685Z,96907.27
2023-11-24T07:55:48.383Z,96903.48
2023-11-24T07:58:22.099Z,96901.65
2023-11-24T08:00:55.712Z,96903.86
2023-11-24T08:03:30.839Z,96901.34
2023-11-24T08:06:09.070Z,96903.24
2023-11-24T08:08:44.876Z,96903.23
2023-11-24T08:11:18.552Z,96900.64
2023-11-24T08:13:52.419Z,96900.23
2023-11-24T08:16:26.215Z,96892.66
2023-11-24T08:18:59.728Z,96889.73
2023-11-24T08:21:33.587Z,96890.84
2023-11-24T08:24:08.056Z,96885.02
2023-11-24T08:26:42.522Z,96884.92
2023-11-24T08:29:16.863Z,96887.15
2023-11-24T08:31:51.034Z,96880.50
2023-11-24T08:34:24.462Z,96883.89
2023-11-24T08:36:58.047Z,96889.34
2023-11-24T08:39:31.785Z,96883.18
2023-11-24T08:42:05.483Z,96880.75
2023-11-24T08:44:40.365Z,96869.86
2023-11-24T08:47:14.535Z,96872.94
2023-11-24T08:49:47.951Z,96876.25
2023-11-24T08:52:21.592Z,96879.10
2023-11-24T08:54:55.437Z,96871.91
2023-11-24T08:57:29.079Z,96866.39
2023-11-24T09:00:02.500Z,96865.14
2023-11-24T09:02:36.365Z,96865.83
2023-11-24T09:05:11.729Z,96864.34
2023-11-24T09:07:45.751Z,96860.01
2023-11-24T09:10:20.326Z,96865.38
2023-11-24T09:12:54.182Z,96849.27
2023-11-24T09:15:27.746Z,96856.61
2023-11-24T09:18:02.677Z,96856.92
2023-11-24T09:20:36.063Z,96855.11
2023-11-24T09:23:10.468Z,96848.73
2023-11-24T09:25:44.203Z,96844.21
2023-11-24T09:28:17.875Z,96847.46
2023-11-24T09:30:51.399Z,96845.56
2023-11-24T09:33:24.902Z,96845.95
2023-11-24T09:35:58.495Z,96845.26
2023-11-24T09:38:32.383Z,96839.49
2023-11-24T09:41:11.071Z,96830.98
2023-11-24T09:43:44.876Z,96818.13
2023-11-24T09:46:18.665Z,96807.14
2023-11-24T09:48:52.906Z,96805.48
2023-11-24T09:51:28.103Z,96800.35
2023-11-24T09:54:03.939Z,96790.43
2023-11-24T09:56:37.667Z,96784.44
2023-11-24T09:59:11.696Z,96784.27
2023-11-24T10:01:45.323Z,96778.38
2023-11-24T10:04:19.184Z,96782.09
2023-11-24T10:06:55.353Z,96779.24
2023-11-24T10:09:31.371Z,96764.49
2023-11-24T10:12:06.824Z,96756.36
2023-11-24T10:14:44.685Z,96746.49
2023-11-24T10:17:18.439Z,96742.85
2023-11-24T10:19:53.146Z,96747.20
2023-11-24T10:22:30.456Z,96745.95
2023-11-24T10:25:08.768Z,96735.39
2023-11-24T10:27:42.653Z,96727.25
2023-11-24T10:30:19.634Z,96729.00
2023-11-24T10:32:53.272Z,96721.58
2023-11-24T10:35:27.074Z,96718.49
2023-11-24T10:38:02.686Z,96710.94
2023-11-24T10:40:39.260Z,96704.21
2023-11-24T10:43:13.037Z,96703.27
2023-11-24T10:45:50.897Z,96697.90
2023-11-24T10:48:35.099Z,96691.55
2023-11-24T10:51:15.327Z,96678.07
2023-11-24T10:53:53.622Z,96673.14
2023-11-24T10:56:31.059Z,96676.55
2023-11-24T10:59:07.233Z,96670.02
2023-11-24T11:01:40.842Z,96661.01
2023-11-24T11:04:15.871Z,96657.87
2023-11-24T11:07:00.103Z,96651.56
2023-11-24T11:09:48.721Z,96658.84
2023-11-24T11:12:44.562Z,96643.92
2023-11-24T11:15:19.161Z,96641.95
2023-11-24T11:18:09.835Z,96642.25
2023-11-24T11:20:45.619Z,96644.05
2023-11-24T11:23:19.338Z,96648.27
2023-11-24T11:25:54.997Z,96645.17
2023-11-24T11:28:43.448Z,96639.20
2023-11-24T11:31:38.980Z,96635.57
2023-11-24T11:34:18.843Z,96631.78
2023-11-24T11:37:07.395Z,96633.65
2023-11-24T11:39:54.608Z,96629.31
2023-11-24T11:42:52.505Z,96626.56
2023-11-24T11:45:31.269Z,96639.96
2023-11-24T11:48:05.850Z,96638.93
2023-11-24T11:50:47.074Z,96642.64
2023-11-24T11:53:20.480Z,96645.17
2023-11-24T11:55:56.673Z,96650.84
2023-11-24T11:58:35.625Z,96647.45
2023-11-24T12:01:10.738Z,96647.85
2023-11-24T12:03:44.936Z,96637.05
2023-11-24T12:06:18.396Z,96637.52
2023-11-24T12:08:51.821Z,96636.19
2023-11-24T12:11:25.262Z,96637.84
2023-11-24T12:13:58.644Z,96634.45
2023-11-24T12:16:34.754Z,96633.97
2023-11-24T12:19:09.061Z,96640.20
2023-11-24T12:21:47.358Z,96634.28
2023-11-24T12:24:23.478Z,96629.64
2023-11-24T12:26:58.629Z,96626.33
2023-11-24T12:29:32.619Z,96625.36
2023-11-24T12:32:11.240Z,96624.02
2023-11-24T12:34:47.845Z,96619.92
2023-11-24T12:37:21.406Z,96614.84
2023-11-24T12:39:55.470Z,96608.38
2023-11-24T12:42:32.050Z,96606.80
2023-11-24T12:45:08.316Z,96605.70
2023-11-24T12:47:42.857Z,96614.08
2023-11-24T12:50:18.865Z,96616.84
2023-11-24T12:52:52.305Z,96612.55
2023-11-24T12:55:26.007Z,96606.08
2023-11-24T12:57:59.651Z,96611.02
2023-11-24T13:00:37.548Z,96611.94
2023-11-24T13:03:11.797Z,96611.52
2023-11-24T13:05:45.789Z,96612.30
2023-11-24T13:08:19.260Z,96609.14
2023-11-24T13:10:54.694Z,96611.92
2023-11-24T13:13:28.174Z,96613.34
2023-11-24T13:16:02.960Z,96613.46
2023-11-24T13:18:39.104Z,96616.98
2023-11-24T13:21:12.683Z,96613.46
2023-11-24T13:23:46.946Z,96613.23
2023-11-24T13:26:20.634Z,96609.06
2023-11-24T13:28:54.749Z,96615.38
2023-11-24T13:31:30.042Z,96615.69
2023-11-24T13:34:04.764Z,96606.36
2023-11-24T13:36:38.307Z,96611.11
2023-11-24T13:39:13.981Z,96612.99
2023-11-24T13:41:48.329Z,96614.64
2023-11-24T13:44:22.138Z,96622.14
2023-11-24T13:46:57.976Z,96627.02
2023-11-24T13:49:31.704Z,96622.98
2023-11-24T13:52:06.106Z,96626.32
2023-11-24T13:54:39.567Z,96626.00
2023-11-24T13:57:13.378Z,96618.85
2023-11-24T13:59:47.393Z,96618.38
2023-11-24T14:02:20.997Z,96616.71
2023-11-24T14:04:55.826Z,96612.46
2023-11-24T14:07:29.337Z,96618.98
2023-11-24T14:10:05.505Z,96614.05
2023-11-24T14:12:38.918Z,96610.81
2023-11-24T14:15:14.935Z,96609.06
2023-11-24T14:17:48.687Z,96608.02
2023-11-24T14:20:22.441Z,96606.80
2023-11-24T14:22:56.141Z,96617.03
2023-11-24T14:25:31.736Z,96625.88
2023-11-24T14:28:05.375Z,96636.73
2023-11-24T14:30:40.095Z,96648.23
2023-11-24T14:33:13.875Z,96663.09
2023-11-24T14:35:47.377Z,96663.96
2023-11-24T14:38:23.168Z,96672.00
2023-11-24T14:40:56.653Z,96672.17
2023-11-24T14:43:30.252Z,96665.71
2023-11-24T14:46:04.022Z,96663.50
2023-11-24T14:48:37.490Z,96668.24
2023-11-24T14:51:12.223Z,96656.25
2023-11-24T14:53:45.671Z,96647.59
2023-11-24T14:56:19.640Z,96652.88
2023-11-24T14:58:53.572Z,96656.54
2023-11-24T15:01:32.891Z,96654.31
2023-11-24T15:04:09.025Z,96655.36
2023-11-24T15:06:42.453Z,96653.86
2023-11-24T15:09:16.815Z,96652.91
2023-11-24T15:11:53.472Z,96648.09
2023-11-24T15:14:34.430Z,96640.49
2023-11-24T15:17:12.334Z,96643.10
2023-11-24T15:19:50.060Z,96646.92
2023-11-24T15:22:28.120Z,96650.23
2023-11-24T15:25:02.008Z,96648.73
2023-11-24T15:27:35.538Z,96651.59
2023-11-24T15:30:13.105Z,96650.88
2023-11-24T15:32:46.494Z,96650.02
2023-11-24T15:35:19.979Z,96653.23
2023-11-24T15:37:53.593Z,96656.78
2023-11-24T15:40:27.140Z,96658.54
2023-11-24T15:43:00.675Z,96654.46
2023-11-24T15:45:34.242Z,96657.10
2023-11-24T15:48:09.061Z,96658.16
2023-11-24T15:50:44.424Z,96660.63
2023-11-24T15:53:21.140Z,96657.55
2023-11-24T15:55:54.609Z,96648.14
2023-11-24T15:58:29.096Z,96642.89
2023-11-24T16:01:06.922Z,96641.59
2023-11-24T16:03:40.798Z,96635.28
2023-11-24T16:06:19.028Z,96633.46
2023-11-24T16:08:55.910Z,96634.20
2023-11-24T16:11:32.978Z,96633.59
2023-11-24T16:14:07.469Z,96635.89
2023-11-24T16:16:46.764Z,96641.01
2023-11-24T16:19:20.811Z,96640.61
2023-11-24T16:21:54.259Z,96636.87
2023-11-24T16:24:28.483Z,96630.11
2023-11-24T16:27:03.785Z,96630.62
2023-11-24T16:29:37.290Z,96632.59
2023-11-24T16:32:11.234Z,96635.05
2023-11-24T16:34:46.841Z,96639.05
2023-11-24T16:37:20.515Z,96640.71
2023-11-24T16:39:55.747Z,96642.13
2023-11-24T16:42:30.039Z,96644.98
2023-11-24T16:45:03.597Z,96647.52
2023-11-24T16:47:37.742Z,96647.02
2023-11-24T16:50:12.775Z,96646.44
2023-11-24T16:52:47.748Z,96648.42
2023-11-24T16:55:21.689Z,96648.20
2023-11-24T16:57:55.187Z,96643.85
2023-11-24T17:00:29.751Z,96647.45
2023-11-24T17:03:03.273Z,96650.16
2023-11-24T17:05:37.822Z,96649.92
2023-11-24T17:08:11.227Z,96648.90
2023-11-24T17:10:46.361Z,96651.52
2023-11-24T17:13:20.008Z,96650.41
2023-11-24T17:15:53.480Z,96650.20
2023-11-24T17:18:27.151Z,96643.20
2023-11-24T17:21:00.694Z,96645.63
2023-11-24T17:23:35.044Z,96643.67
2023-11-24T17:26:10.862Z,96643.13
2023-11-24T17:28:48.047Z,96650.16
2023-11-24T17:31:24.459Z,96652.59
2023-11-24T17:33:59.053Z,96645.09
2023-11-24T17:36:34.420Z,96636.98
2023-11-24T17:39:12.781Z,96639.66
2023-11-24T17:41:46.326Z,96637.59
2023-11-24T17:44:20.236Z,96637.43
2023-11-24T17:46:53.902Z,96635.48
2023-11-24T17:49:27.975Z,96636.51
2023-11-24T17:52:03.126Z,96636.82
2023-11-24T17:54:36.928Z,96638.48
2023-11-24T17:57:10.690Z,96634.91
2023-11-24T17:59:44.547Z,96634.92
2023-11-24T18:02:18.000Z,96637.34
2023-11-24T18:04:52.645Z,96639.71
2023-11-24T18:07:26.867Z,96642.09
2023-11-24T18:10:00.476Z,96640.19
2023-11-24T18:12:34.148Z,96649.61
2023-11-24T18:15:11.210Z,96658.66
2023-11-24T18:17:44.853Z,96654.09
2023-11-24T18:20:18.924Z,96647.70
2023-11-24T18:22:53.548Z,96647.38
2023-11-24T18:25:27.199Z,96649.43
2023-11-24T18:28:00.679Z,96649.81
2023-11-24T18:30:34.894Z,96644.13
2023-11-24T18:33:09.610Z,96644.54
2023-11-24T18:35:44.677Z,96645.00
2023-11-24T18:38:18.432Z,96641.58
2023-11-24T18:40:53.295Z,96640.46
2023-11-24T18:43:36.697Z,96637.88
2023-11-24T18:46:13.414Z,96634.41
2023-11-24T18:48:46.948Z,96640.94
2023-11-24T18:51:20.652Z,96638.41
2023-11-24T18:53:55.124Z,96639.49
2023-11-24T18:56:28.696Z,96640.40
2023-11-24T18:59:02.288Z,96640.56
2023-11-24T19:01:35.833Z,96633.14
2023-11-24T19:04:09.668Z,96630.54
2023-11-24T19:06:43.272Z,96630.78
2023-11-24T19:09:17.453Z,96625.37
2023-11-24T19:11:50.889Z,96623.80
2023-11-24T19:14:24.664Z,96624.30
2023-11-24T19:16:58.321Z,96624.45
2023-11-24T19:19:32.583Z,96624.77
2023-11-24T19:22:06.559Z,96626.14
2023-11-24T19:24:40.229Z,96616.06
2023-11-24T19:27:14.561Z,96618.75
2023-11-24T19:29:48.008Z,96613.45
2023-11-24T19:32:23.112Z,96620.14
2023-11-24T19:34:56.748Z,96617.98
2023-11-24T19:37:30.366Z,96617.48
2023-11-24T19:40:06.817Z,96613.83
2023-11-24T19:42:40.434Z,96608.17
2023-11-24T19:45:15.135Z,96608.79
2023-11-24T19:47:49.198Z,96608.39
2023-11-24T19:50:23.190Z,96608.10
2023-11-24T19:52:57.111Z,96600.35
2023-11-24T19:55:30.733Z,96597.38
2023-11-24T19:58:04.862Z,96592.83
2023-11-24T20:00:38.310Z,96596.28
2023-11-24T20:03:11.880Z,96597.55
2023-11-24T20:05:45.552Z,96604.21
2023-11-24T20:08:18.933Z,96605.59
2023-11-24T20:10:54.030Z,96612.42
2023-11-24T20:13:27.611Z,96606.54
2023-11-24T20:16:02.085Z,96607.51
2023-11-24T20:18:36.038Z,96602.69
2023-11-24T20:21:10.113Z,96609.89
2023-11-24T20:23:43.642Z,96603.88
2023-11-24T20:26:17.124Z,96603.55
2023-11-24T20:28:53.228Z,96609.55
2023-11-24T20:31:26.989Z,96615.19
2023-11-24T20:34:00.609Z,96612.88
2023-11-24T20:36:34.721Z,96614.63
2023-11-24T20:39:08.799Z,96613.23
2023-11-24T20:41:45.620Z,96611.94
2023-11-24T20:44:19.552Z,96612.17
2023-11-24T20:46:54.435Z,96610.85
2023-11-24T20:49:29.302Z,96607.00
2023-11-24T20:52:04.969Z,96607.58
2023-11-24T20:54:38.941Z,96602.19
2023-11-24T20:57:12.361Z,96603.12
2023-11-24T20:59:47.260Z,96599.86
2023-11-24T21:02:21.655Z,96594.33
2023-11-24T21:04:55.206Z,96590.63
2023-11-24T21:07:28.855Z,96583.67
2023-11-24T21:10:03.259Z,96593.94
2023-11-24T21:12:42.550Z,96598.83
2023-11-24T21:15:16.522Z,96601.11
2023-11-24T21:17:50.779Z,96605.61
2023-11-24T21:20:24.636Z,96607.01
2023-11-24T21:22:58.099Z,96606.79
2023-11-24T21:25:31.945Z,96608.30
2023-11-24T21:28:05.782Z,96604.67
2023-11-24T21:30:39.296Z,96607.35
2023-11-24T21:33:13.194Z,96615.24
2023-11-24T21:35:47.093Z,96612.80
2023-11-24T21:38:22.198Z,96612.49
2023-11-24T21:40:55.822Z,96610.52
2023-11-24T21:43:31.877Z,96611.55
2023-11-24T21:46:05.426Z,96609.71
2023-11-24T21:48:38.926Z,96609.54
2023-11-24T21:51:12.485Z,96604.23
2023-11-24T21:53:46.383Z,96595.29
2023-11-24T21:56:29.965Z,96595.85
2023-11-24T21:59:03.764Z,96589.63
2023-11-24T22:01:37.720Z,96590.73
2023-11-24T22:04:11.919Z,96587.20
2023-11-24T22:06:45.403Z,96592.27
2023-11-24T22:09:20.679Z,96600.16
2023-11-24T22:11:54.184Z,96602.95
2023-11-24T22:14:27.785Z,96604.15
2023-11-24T22:17:01.957Z,96605.03
2023-11-24T22:19:35.647Z,96590.86
2023-11-24T22:22:09.288Z,96592.08
2023-11-24T22:24:44.323Z,96594.34
2023-11-24T22:27:18.363Z,96589.52
2023-11-24T22:30:01.366Z,96579.56
2023-11-24T22:32:38.311Z,96576.87
2023-11-24T22:35:13.099Z,96578.39
2023-11-24T22:37:46.817Z,96572.15
2023-11-24T22:40:21.009Z,96570.91
2023-11-24T22:42:54.398Z,96568.46
2023-11-24T22:45:27.774Z,96567.07
2023-11-24T22:48:01.294Z,96561.96
2023-11-24T22:50:35.800Z,96562.27
2023-11-24T22:53:09.205Z,96560.95
2023-11-24T22:55:42.919Z,96560.87
2023-11-24T22:58:17.080Z,96556.16
2023-11-24T23:00:51.654Z,96553.14
2023-11-24T23:03:25.241Z,96550.20
2023-11-24T23:05:58.918Z,96548.92
2023-11-24T23:08:32.825Z,96552.18
2023-11-24T23:11:06.550Z,96553.91
2023-11-24T23:13:42.055Z,96557.39
2023-11-24T23:16:16.056Z,96557.39
2023-11-24T23:18:50.613Z,96554.33
2023-11-24T23:21:24.563Z,96558.89
2023-11-24T23:23:58.278Z,96558.01
2023-11-24T23:26:31.748Z,96553.98
2023-11-24T23:29:05.210Z,96546.31
2023-11-24T23:31:38.996Z,96548.91
2023-11-24T23:34:13.050Z,96549.14
2023-11-24T23:36:46.506Z,96541.17
2023-11-24T23:39:20.506Z,96533.28
2023-11-24T23:41:54.367Z,96534.70
2023-11-24T23:44:27.828Z,96535.55
2023-11-24T23:47:01.655Z,96540.77
2023-11-24T23:49:35.159Z,96542.52
2023-11-24T23:52:09.336Z,96550.48
2023-11-24T23:54:42.759Z,96547.34
2023-11-24T23:57:16.278Z,96540.98
2023-11-24T23:59:50.096Z,96541.69
